KCGI/CGI METAR and TAF weather

Enter ICAO airport designator
Station Type Date Time Source
KCGI METAR 2020/11/27 01:53 UTC NOAA

KCGI 270153Z AUTO 12005KT 10SM CLR 04/03 A3008 RMK AO2 SLP188 T00440033


Station Type Date Time Source
KCGI Decoded METAR 2020/11/27 01:53 UTC NOAA

CAPE GIRARDEAU REGIONAL, MO, United States (KCGI) 37-14N 089-35W 102M
Nov 26, 2020 - 08:53 PM EST / 2020.11.27 0153 UTC
Wind: from the ESE (120 degrees) at 6 MPH (5 KT):0
Visibility: 10 mile(s):0
Sky conditions: clear
Temperature: 39.9 F (4.4 C)
Dew Point: 37.9 F (3.3 C)
Relative Humidity: 92%
Pressure (altimeter): 30.08 in. Hg (1018 hPa)
ob: KCGI 270153Z AUTO 12005KT 10SM CLR 04/03 A3008 RMK AO2 SLP188 T00440033
cycle: 2

Station Type Date Time Source
KCGI TAF 2020/11/26 18:22 UTC NOAA

TAF KCGI 261720Z 2618/2718 21007KT P6SM OVC015
FM262100 22005KT P6SM SKC
FM270000 00000KT P6SM SKC
FM271000 00000KT 5SM BR SCT200
FM271300 VRB03KT P6SM SCT050

Example: see airport list